^^
Caerphilly Weather Station Historical Data
 
Daily Summary for February 22, 2020 Units:  Metric    English   Both
Daily Weekly Monthly Yearly Custom
  Current: High: Low: Average:
Temperature: 7.8 °C 11.0 °C 7.8 °C 9.3 °C
Dew Point: 6.4 °C 9.3 °C 6.4 °C 7.9 °C
Humidity: 91% 97% 84% 92%
Wind Speed: 12.9km/h 37.0km/h 11.3km/h 24km/h
Wind Gust: 20.9km/h 66.0km/h - -
WindWest - - WSW
Pressure: 1021.0 hPa 1021.1 hPa 1013.5 hPa -
Precipitation: 8.2 mm      
Historical Graphs
 
 
Tabular Data for February 22, 2020
Time Temperature Dew Point Pressure Wind Wind Speed Wind Gust Humidity Rainfall Rate (Hourly) solar
00:00 9.2 °C 7.4 °C 1016.7 hPa WSW 24.1 km/h 40.2 km/h 89% 0.0 mm 0.00 W/m2
00:05 9.0 °C 7.4 °C 1016.5 hPa WSW 29.0 km/h 45.1 km/h 90% 0.0 mm 0.00 W/m2
00:10 8.9 °C 7.5 °C 1016.4 hPa WSW 25.7 km/h 48.3 km/h 91% 0.2 mm 0.00 W/m2
00:15 8.8 °C 7.4 °C 1016.3 hPa WSW 16.1 km/h 38.6 km/h 91% 0.0 mm 0.00 W/m2
00:20 8.7 °C 7.5 °C 1016.3 hPa WSW 32.2 km/h 51.5 km/h 92% 0.0 mm 0.00 W/m2
00:25 8.7 °C 7.5 °C 1016.2 hPa WSW 29.0 km/h 45.1 km/h 92% 0.0 mm 0.00 W/m2
00:30 8.7 °C 7.4 °C 1016.1 hPa WSW 24.1 km/h 41.8 km/h 92% 0.0 mm 0.00 W/m2
00:35 8.7 °C 7.5 °C 1016.1 hPa WSW 29.0 km/h 56.3 km/h 92% 0.0 mm 0.00 W/m2
00:40 8.7 °C 7.5 °C 1015.9 hPa WSW 19.3 km/h 56.3 km/h 92% 0.0 mm 0.00 W/m2
00:45 8.8 °C 7.6 °C 1015.7 hPa WSW 24.1 km/h 46.7 km/h 92% 0.0 mm 0.00 W/m2
00:50 8.8 °C 7.6 °C 1015.6 hPa WSW 27.4 km/h 43.4 km/h 92% 0.0 mm 0.00 W/m2
00:55 8.8 °C 7.6 °C 1015.5 hPa WSW 25.7 km/h 56.3 km/h 92% 0.0 mm 0.00 W/m2
01:00 8.8 °C 7.6 °C 1015.3 hPa WSW 25.7 km/h 48.3 km/h 92% 0.2 mm 0.00 W/m2
01:05 8.7 °C 7.5 °C 1015.1 hPa WSW 24.1 km/h 45.1 km/h 92% 0.2 mm 0.00 W/m2
01:10 8.7 °C 7.6 °C 1015.1 hPa WSW 24.1 km/h 45.1 km/h 93% 0.0 mm 0.00 W/m2
01:15 8.6 °C 7.6 °C 1015.0 hPa WSW 29.0 km/h 48.3 km/h 93% 0.0 mm 0.00 W/m2
01:20 8.6 °C 7.5 °C 1014.9 hPa SW 20.9 km/h 48.3 km/h 93% 0.0 mm 0.00 W/m2
01:25 8.6 °C 7.7 °C 1014.9 hPa SW 19.3 km/h 43.4 km/h 94% 0.0 mm 0.00 W/m2
01:30 8.6 °C 7.6 °C 1015.1 hPa WSW 20.9 km/h 43.4 km/h 94% 0.0 mm 0.00 W/m2
01:35 8.5 °C 7.6 °C 1015.0 hPa WSW 20.9 km/h 41.8 km/h 94% 0.2 mm 0.00 W/m2
01:40 8.5 °C 7.6 °C 1014.9 hPa SW 27.4 km/h 49.9 km/h 94% 0.0 mm 0.00 W/m2
01:45 8.5 °C 7.6 °C 1014.5 hPa WSW 24.1 km/h 49.9 km/h 94% 0.0 mm 0.00 W/m2
01:50 8.5 °C 7.7 °C 1014.5 hPa WSW 24.1 km/h 43.4 km/h 95% 0.0 mm 0.00 W/m2
01:55 8.5 °C 7.7 °C 1014.6 hPa WSW 22.5 km/h 33.8 km/h 95% 0.0 mm 0.00 W/m2
02:00 8.5 °C 7.7 °C 1014.5 hPa WSW 25.7 km/h 43.4 km/h 95% 0.2 mm 0.00 W/m2
02:05 8.5 °C 7.7 °C 1014.5 hPa WSW 29.0 km/h 46.7 km/h 95% 0.0 mm 0.00 W/m2
02:10 8.5 °C 7.7 °C 1014.5 hPa WSW 25.7 km/h 45.1 km/h 95% 0.0 mm 0.00 W/m2
02:15 8.5 °C 7.7 °C 1014.6 hPa WSW 25.7 km/h 40.2 km/h 95% 0.2 mm 0.00 W/m2
02:20 8.5 °C 7.7 °C 1014.5 hPa SW 25.7 km/h 45.1 km/h 95% 0.0 mm 0.00 W/m2
02:25 8.5 °C 7.7 °C 1014.3 hPa SW 27.4 km/h 45.1 km/h 95% 0.2 mm 0.00 W/m2
02:30 8.6 °C 7.8 °C 1014.2 hPa WSW 22.5 km/h 45.1 km/h 95% 0.2 mm 0.00 W/m2
02:35 8.6 °C 7.9 °C 1014.2 hPa WSW 20.9 km/h 53.1 km/h 96% 0.0 mm 0.00 W/m2
02:40 8.6 °C 7.9 °C 1014.3 hPa SW 33.8 km/h 53.1 km/h 96% 0.0 mm 0.00 W/m2
02:45 8.6 °C 8.0 °C 1014.2 hPa SW 27.4 km/h 56.3 km/h 96% 0.2 mm 0.00 W/m2
02:50 8.6 °C 7.9 °C 1014.3 hPa WSW 33.8 km/h 51.5 km/h 95% 0.2 mm 0.00 W/m2
02:55 8.7 °C 7.9 °C 1014.3 hPa SW 29.0 km/h 46.7 km/h 95% 0.2 mm 0.00 W/m2
03:00 8.7 °C 8.1 °C 1014.3 hPa SW 24.1 km/h 46.7 km/h 96% 0.2 mm 0.00 W/m2
03:05 8.7 °C 8.1 °C 1014.1 hPa SW 22.5 km/h 41.8 km/h 96% 0.2 mm 0.00 W/m2
03:10 8.7 °C 8.1 °C 1014.1 hPa SW 32.2 km/h 49.9 km/h 96% 0.4 mm 0.00 W/m2
03:15 8.7 °C 8.1 °C 1014.1 hPa SW 27.4 km/h 51.5 km/h 96% 0.2 mm 0.00 W/m2
03:20 8.7 °C 8.1 °C 1014.2 hPa SW 19.3 km/h 41.8 km/h 96% 0.2 mm 0.00 W/m2
03:25 8.8 °C 8.2 °C 1014.1 hPa SW 29.0 km/h 53.1 km/h 96% 0.4 mm 0.00 W/m2
03:30 8.8 °C 8.2 °C 1014.1 hPa WSW 33.8 km/h 46.7 km/h 96% 0.2 mm 0.00 W/m2
03:35 8.8 °C 8.2 °C 1013.8 hPa SW 24.1 km/h 41.8 km/h 96% 0.4 mm 0.00 W/m2
03:40 8.8 °C 8.2 °C 1014.1 hPa WSW 20.9 km/h 48.3 km/h 96% 0.0 mm 0.00 W/m2
03:45 8.9 °C 8.3 °C 1014.2 hPa WSW 22.5 km/h 43.4 km/h 96% 0.2 mm 0.00 W/m2
03:50 8.9 °C 8.3 °C 1014.2 hPa WSW 29.0 km/h 43.4 km/h 96% 0.2 mm 0.00 W/m2
03:55 8.9 °C 8.3 °C 1014.2 hPa WSW 24.1 km/h 45.1 km/h 96% 0.2 mm 0.00 W/m2
04:00 8.9 °C 8.3 °C 1014.0 hPa WSW 24.1 km/h 43.4 km/h 96% 0.2 mm 0.00 W/m2
04:05 8.9 °C 8.3 °C 1014.1 hPa WSW 29.0 km/h 48.3 km/h 96% 0.0 mm 0.00 W/m2
04:10 8.9 °C 8.3 °C 1014.3 hPa WSW 29.0 km/h 41.8 km/h 96% 0.2 mm 0.00 W/m2
04:15 9.0 °C 8.4 °C 1014.3 hPa WSW 27.4 km/h 41.8 km/h 96% 0.2 mm 0.00 W/m2
04:20 9.1 °C 8.4 °C 1014.3 hPa WSW 35.4 km/h 56.3 km/h 96% 0.2 mm 0.00 W/m2
04:25 9.1 °C 8.4 °C 1014.0 hPa WSW 25.7 km/h 51.5 km/h 96% 0.2 mm 0.00 W/m2
04:30 9.1 °C 8.4 °C 1014.0 hPa WSW 24.1 km/h 46.7 km/h 96% 0.0 mm 0.00 W/m2
04:35 9.1 °C 8.4 °C 1013.8 hPa WSW 22.5 km/h 41.8 km/h 96% 0.2 mm 0.00 W/m2
04:40 9.1 °C 8.5 °C 1014.0 hPa WSW 24.1 km/h 40.2 km/h 96% 0.0 mm 0.00 W/m2
04:45 9.2 °C 8.6 °C 1013.9 hPa West 29.0 km/h 61.1 km/h 96% 0.2 mm 0.00 W/m2
04:50 9.2 °C 8.6 °C 1013.6 hPa West 20.9 km/h 49.9 km/h 96% 0.0 mm 0.00 W/m2
04:55 9.2 °C 8.6 °C 1013.8 hPa WSW 27.4 km/h 59.5 km/h 96% 0.0 mm 0.00 W/m2
05:00 9.2 °C 8.6 °C 1013.7 hPa WSW 29.0 km/h 57.9 km/h 96% 0.0 mm 0.00 W/m2
05:05 9.3 °C 8.7 °C 1013.7 hPa WSW 37.0 km/h 62.8 km/h 96% 0.0 mm 0.00 W/m2
05:10 9.3 °C 8.9 °C 1013.5 hPa WSW 32.2 km/h 56.3 km/h 97% 0.0 mm 0.00 W/m2
05:15 9.3 °C 8.9 °C 1013.6 hPa WSW 27.4 km/h 56.3 km/h 97% 0.0 mm 0.00 W/m2
05:20 9.4 °C 8.9 °C 1013.9 hPa WSW 35.4 km/h 57.9 km/h 97% 0.0 mm 0.00 W/m2
05:25 9.4 °C 9.0 °C 1013.9 hPa WSW 32.2 km/h 53.1 km/h 97% 0.0 mm 0.00 W/m2
05:30 9.5 °C 8.9 °C 1014.1 hPa WSW 33.8 km/h 56.3 km/h 96% 0.0 mm 0.00 W/m2
05:35 9.6 °C 8.9 °C 1014.1 hPa WSW 22.5 km/h 51.5 km/h 96% 0.0 mm 0.00 W/m2
05:40 9.6 °C 8.9 °C 1014.2 hPa WSW 25.7 km/h 49.9 km/h 96% 0.0 mm 0.00 W/m2
05:45 9.6 °C 9.0 °C 1014.0 hPa WSW 33.8 km/h 66.0 km/h 96% 0.2 mm 0.00 W/m2
05:50 9.6 °C 9.0 °C 1014.1 hPa West 25.7 km/h 48.3 km/h 96% 0.0 mm 0.00 W/m2
05:55 9.7 °C 9.2 °C 1014.1 hPa West 27.4 km/h 49.9 km/h 97% 0.0 mm 0.00 W/m2
06:00 9.7 °C 9.2 °C 1014.1 hPa WSW 25.7 km/h 56.3 km/h 97% 0.2 mm 0.00 W/m2
06:05 9.7 °C 9.2 °C 1013.9 hPa WSW 20.9 km/h 46.7 km/h 97% 0.0 mm 0.00 W/m2
06:10 9.7 °C 9.2 °C 1014.0 hPa WSW 25.7 km/h 56.3 km/h 97% 0.0 mm 0.00 W/m2
06:15 9.7 °C 9.2 °C 1013.9 hPa West 24.1 km/h 38.6 km/h 97% 0.0 mm 0.00 W/m2
06:20 9.7 °C 9.2 °C 1014.0 hPa WSW 27.4 km/h 59.5 km/h 97% 0.0 mm 0.00 W/m2
06:25 9.7 °C 9.2 °C 1013.8 hPa WSW 37.0 km/h 56.3 km/h 97% 0.2 mm 0.00 W/m2
06:30 9.7 °C 9.2 °C 1013.8 hPa WSW 27.4 km/h 53.1 km/h 97% 0.0 mm 0.00 W/m2
06:35 9.7 °C 9.2 °C 1013.7 hPa WSW 29.0 km/h 43.4 km/h 97% 0.0 mm 0.00 W/m2
06:40 9.7 °C 9.3 °C 1013.8 hPa WSW 25.7 km/h 48.3 km/h 97% 0.0 mm 0.00 W/m2
06:45 9.7 °C 9.3 °C 1013.7 hPa WSW 35.4 km/h 48.3 km/h 97% 0.0 mm 0.00 W/m2
06:50 9.8 °C 9.3 °C 1013.8 hPa WSW 33.8 km/h 53.1 km/h 97% 0.2 mm 0.00 W/m2
06:55 9.8 °C 9.3 °C 1013.9 hPa WSW 29.0 km/h 56.3 km/h 97% 0.0 mm 0.00 W/m2
07:00 9.8 °C 9.3 °C 1014.0 hPa West 35.4 km/h 59.5 km/h 97% 0.0 mm 0.00 W/m2
07:05 9.7 °C 9.3 °C 1014.1 hPa West 25.7 km/h 62.8 km/h 97% 0.0 mm 0.00 W/m2
07:10 9.7 °C 9.2 °C 1014.1 hPa West 32.2 km/h 51.5 km/h 97% 0.0 mm 0.00 W/m2
07:15 9.6 °C 9.2 °C 1014.1 hPa West 29.0 km/h 59.5 km/h 97% 0.0 mm 0.00 W/m2
07:20 9.6 °C 9.0 °C 1014.4 hPa West 32.2 km/h 56.3 km/h 96% 0.0 mm 0.00 W/m2
07:25 9.5 °C 8.9 °C 1014.5 hPa West 27.4 km/h 57.9 km/h 96% 0.0 mm 0.00 W/m2
07:30 9.4 °C 8.8 °C 1014.6 hPa West 29.0 km/h 49.9 km/h 96% 0.0 mm 0.00 W/m2
07:35 9.5 °C 8.9 °C 1014.9 hPa West 27.4 km/h 57.9 km/h 96% 0.0 mm 5.00 W/m2
07:40 9.6 °C 8.9 °C 1015.0 hPa West 27.4 km/h 46.7 km/h 96% 0.0 mm 7.00 W/m2
07:45 9.6 °C 9.0 °C 1014.8 hPa West 27.4 km/h 45.1 km/h 96% 0.0 mm 12.00 W/m2
07:50 9.6 °C 8.8 °C 1015.1 hPa West 25.7 km/h 46.7 km/h 95% 0.0 mm 14.00 W/m2
07:55 9.7 °C 8.9 °C 1015.0 hPa West 20.9 km/h 45.1 km/h 95% 0.0 mm 21.00 W/m2
08:00 9.6 °C 8.8 °C 1015.2 hPa West 37.0 km/h 53.1 km/h 95% 0.0 mm 28.00 W/m2
08:05 9.6 °C 8.8 °C 1015.2 hPa WSW 25.7 km/h 56.3 km/h 95% 0.0 mm 25.00 W/m2
08:10 9.5 °C 8.7 °C 1015.3 hPa West 24.1 km/h 48.3 km/h 95% 0.0 mm 28.00 W/m2
08:15 9.5 °C 8.6 °C 1015.4 hPa West 29.0 km/h 43.4 km/h 94% 0.0 mm 37.00 W/m2
08:20 9.5 °C 8.6 °C 1015.5 hPa WSW 27.4 km/h 43.4 km/h 94% 0.0 mm 58.00 W/m2
08:25 9.5 °C 8.6 °C 1015.5 hPa WSW 25.7 km/h 43.4 km/h 94% 0.0 mm 56.00 W/m2
08:30 9.5 °C 8.4 °C 1015.6 hPa West 32.2 km/h 53.1 km/h 93% 0.0 mm 67.00 W/m2
08:35 9.6 °C 8.5 °C 1015.7 hPa West 27.4 km/h 48.3 km/h 93% 0.0 mm 65.00 W/m2
08:40 9.7 °C 8.6 °C 1015.9 hPa West 35.4 km/h 48.3 km/h 93% 0.0 mm 88.00 W/m2
08:45 9.7 °C 8.5 °C 1016.1 hPa West 32.2 km/h 56.3 km/h 92% 0.0 mm 74.00 W/m2
08:50 9.8 °C 8.6 °C 1016.2 hPa West 32.2 km/h 45.1 km/h 92% 0.0 mm 72.00 W/m2
08:55 9.8 °C 8.6 °C 1016.2 hPa West 19.3 km/h 43.4 km/h 92% 0.0 mm 65.00 W/m2
09:00 9.8 °C 8.6 °C 1016.3 hPa West 25.7 km/h 48.3 km/h 92% 0.0 mm 69.00 W/m2
09:05 9.8 °C 8.6 °C 1016.2 hPa West 22.5 km/h 43.4 km/h 92% 0.0 mm 69.00 W/m2
09:10 9.8 °C 8.6 °C 1016.3 hPa West 19.3 km/h 43.4 km/h 92% 0.0 mm 56.00 W/m2
09:15 9.8 °C 8.6 °C 1016.4 hPa West 20.9 km/h 41.8 km/h 92% 0.0 mm 72.00 W/m2
09:20 9.8 °C 8.6 °C 1016.5 hPa West 22.5 km/h 40.2 km/h 92% 0.0 mm 102.00 W/m2
09:25 9.8 °C 8.6 °C 1016.5 hPa West 20.9 km/h 40.2 km/h 92% 0.0 mm 197.00 W/m2
09:30 9.9 °C 8.7 °C 1016.5 hPa West 19.3 km/h 32.2 km/h 92% 0.0 mm 193.00 W/m2
09:35 9.9 °C 8.5 °C 1016.5 hPa West 25.7 km/h 45.1 km/h 91% 0.0 mm 185.00 W/m2
09:40 9.9 °C 8.4 °C 1016.5 hPa West 16.1 km/h 38.6 km/h 90% 0.0 mm 141.00 W/m2
09:45 10.1 °C 8.3 °C 1016.6 hPa West 19.3 km/h 45.1 km/h 89% 0.0 mm 197.00 W/m2
09:50 10.1 °C 8.4 °C 1016.7 hPa West 32.2 km/h 49.9 km/h 89% 0.0 mm 221.00 W/m2
09:55 10.2 °C 8.3 °C 1016.8 hPa West 27.4 km/h 46.7 km/h 88% 0.0 mm 167.00 W/m2
10:00 10.2 °C 8.2 °C 1016.9 hPa West 27.4 km/h 43.4 km/h 87% 0.0 mm 192.00 W/m2
10:05 10.2 °C 8.0 °C 1017.0 hPa West 29.0 km/h 41.8 km/h 86% 0.0 mm 137.00 W/m2
10:10 10.3 °C 8.1 °C 1017.1 hPa West 20.9 km/h 46.7 km/h 86% 0.0 mm 178.00 W/m2
10:15 10.3 °C 8.1 °C 1017.3 hPa WSW 20.9 km/h 46.7 km/h 86% 0.0 mm 223.00 W/m2
10:20 10.4 °C 8.2 °C 1017.4 hPa West 20.9 km/h 43.4 km/h 86% 0.0 mm 146.00 W/m2
10:25 10.4 °C 8.2 °C 1017.4 hPa West 20.9 km/h 45.1 km/h 86% 0.0 mm 181.00 W/m2
10:30 10.5 °C 8.3 °C 1017.6 hPa West 25.7 km/h 40.2 km/h 86% 0.0 mm 241.00 W/m2
10:35 10.5 °C 8.3 °C 1017.6 hPa West 19.3 km/h 32.2 km/h 86% 0.0 mm 156.00 W/m2
10:40 10.4 °C 8.2 °C 1017.4 hPa West 25.7 km/h 43.4 km/h 86% 0.0 mm 181.00 W/m2
10:45 10.4 °C 8.2 °C 1017.6 hPa West 16.1 km/h 48.3 km/h 86% 0.0 mm 123.00 W/m2
10:50 10.3 °C 8.1 °C 1017.7 hPa WSW 24.1 km/h 40.2 km/h 86% 0.0 mm 158.00 W/m2
10:55 10.4 °C 8.1 °C 1017.9 hPa WSW 24.1 km/h 53.1 km/h 86% 0.0 mm 178.00 W/m2
11:00 10.5 °C 8.2 °C 1017.8 hPa West 27.4 km/h 53.1 km/h 86% 0.0 mm 193.00 W/m2
11:05 10.5 °C 8.3 °C 1017.9 hPa West 29.0 km/h 51.5 km/h 86% 0.0 mm 169.00 W/m2
11:10 10.6 °C 8.1 °C 1018.0 hPa West 32.2 km/h 49.9 km/h 85% 0.0 mm 172.00 W/m2
11:15 10.6 °C 8.1 °C 1017.9 hPa West 25.7 km/h 43.4 km/h 85% 0.0 mm 100.00 W/m2
11:20 10.5 °C 8.3 °C 1018.1 hPa WSW 22.5 km/h 51.5 km/h 86% 0.0 mm 192.00 W/m2
11:25 10.5 °C 8.3 °C 1018.1 hPa West 27.4 km/h 48.3 km/h 86% 0.0 mm 227.00 W/m2
11:30 10.5 °C 8.4 °C 1018.3 hPa West 16.1 km/h 43.4 km/h 87% 0.0 mm 183.00 W/m2
11:35 10.6 °C 8.3 °C 1018.3 hPa West 29.0 km/h 51.5 km/h 86% 0.0 mm 146.00 W/m2
11:40 10.6 °C 8.3 °C 1018.3 hPa West 29.0 km/h 56.3 km/h 86% 0.0 mm 204.00 W/m2
11:45 10.7 °C 8.6 °C 1018.2 hPa West 29.0 km/h 46.7 km/h 87% 0.0 mm 195.00 W/m2
11:50 10.7 °C 8.6 °C 1018.4 hPa West 27.4 km/h 48.3 km/h 87% 0.0 mm 250.00 W/m2
11:55 10.7 °C 8.7 °C 1018.3 hPa West 25.7 km/h 48.3 km/h 87% 0.0 mm 271.00 W/m2
12:00 10.9 °C 8.7 °C 1018.1 hPa West 24.1 km/h 41.8 km/h 86% 0.0 mm 271.00 W/m2
12:05 11.0 °C 8.6 °C 1018.2 hPa West 22.5 km/h 48.3 km/h 85% 0.0 mm 199.00 W/m2
12:10 10.9 °C 8.5 °C 1018.2 hPa West 33.8 km/h 49.9 km/h 85% 0.0 mm 244.00 W/m2
12:15 10.9 °C 8.5 °C 1018.2 hPa West 24.1 km/h 43.4 km/h 85% 0.0 mm 134.00 W/m2
12:20 10.8 °C 8.2 °C 1018.4 hPa West 24.1 km/h 48.3 km/h 84% 0.0 mm 135.00 W/m2
12:25 10.8 °C 8.2 °C 1018.3 hPa West 24.1 km/h 38.6 km/h 84% 0.0 mm 132.00 W/m2
12:30 10.7 °C 8.3 °C 1018.3 hPa West 27.4 km/h 41.8 km/h 85% 0.0 mm 190.00 W/m2
12:35 10.7 °C 8.3 °C 1018.4 hPa West 33.8 km/h 61.1 km/h 85% 0.0 mm 178.00 W/m2
12:40 10.6 °C 8.2 °C 1018.5 hPa West 25.7 km/h 43.4 km/h 85% 0.0 mm 135.00 W/m2
12:45 10.6 °C 8.1 °C 1018.5 hPa West 24.1 km/h 46.7 km/h 85% 0.0 mm 109.00 W/m2
12:50 10.4 °C 8.2 °C 1018.6 hPa West 22.5 km/h 43.4 km/h 86% 0.0 mm 123.00 W/m2
12:55 10.4 °C 8.2 °C 1018.6 hPa West 19.3 km/h 32.2 km/h 86% 0.0 mm 134.00 W/m2
13:00 10.3 °C 7.9 °C 1018.7 hPa West 19.3 km/h 46.7 km/h 85% 0.0 mm 130.00 W/m2
13:05 10.3 °C 7.9 °C 1018.8 hPa West 32.2 km/h 49.9 km/h 85% 0.0 mm 158.00 W/m2
13:10 10.3 °C 7.9 °C 1018.8 hPa WSW 22.5 km/h 40.2 km/h 85% 0.0 mm 142.00 W/m2
13:15 10.2 °C 7.8 °C 1018.8 hPa West 20.9 km/h 49.9 km/h 85% 0.0 mm 209.00 W/m2
13:20 10.3 °C 8.1 °C 1018.8 hPa West 14.5 km/h 32.2 km/h 86% 0.0 mm 156.00 W/m2
13:25 10.2 °C 7.8 °C 1018.7 hPa West 24.1 km/h 38.6 km/h 85% 0.0 mm 116.00 W/m2
13:30 10.1 °C 7.7 °C 1018.7 hPa West 24.1 km/h 38.6 km/h 85% 0.0 mm 109.00 W/m2
13:35 10.1 °C 7.9 °C 1018.8 hPa West 16.1 km/h 40.2 km/h 86% 0.0 mm 97.00 W/m2
13:40 10.1 °C 7.8 °C 1018.9 hPa West 20.9 km/h 41.8 km/h 86% 0.0 mm 111.00 W/m2
13:45 10.0 °C 7.8 °C 1018.9 hPa WSW 20.9 km/h 41.8 km/h 86% 0.0 mm 88.00 W/m2
13:50 10.0 °C 7.8 °C 1019.1 hPa West 22.5 km/h 43.4 km/h 86% 0.0 mm 91.00 W/m2
13:55 9.9 °C 7.7 °C 1019.1 hPa West 22.5 km/h 33.8 km/h 86% 0.0 mm 69.00 W/m2
14:00 9.9 °C 7.7 °C 1019.1 hPa West 27.4 km/h 43.4 km/h 86% 0.0 mm 33.00 W/m2
14:05 9.8 °C 7.7 °C 1018.9 hPa West 22.5 km/h 40.2 km/h 87% 0.0 mm 56.00 W/m2
14:10 9.7 °C 7.8 °C 1018.9 hPa West 27.4 km/h 38.6 km/h 88% 0.0 mm 77.00 W/m2
14:15 9.7 °C 7.8 °C 1019.0 hPa WSW 22.5 km/h 38.6 km/h 88% 0.0 mm 72.00 W/m2
14:20 9.6 °C 7.8 °C 1019.0 hPa West 24.1 km/h 45.1 km/h 89% 0.0 mm 86.00 W/m2
14:25 9.5 °C 7.6 °C 1019.0 hPa West 25.7 km/h 41.8 km/h 88% 0.0 mm 83.00 W/m2
14:30 9.5 °C 7.6 °C 1019.2 hPa West 29.0 km/h 57.9 km/h 88% 0.0 mm 67.00 W/m2
14:35 9.5 °C 7.6 °C 1019.1 hPa West 27.4 km/h 46.7 km/h 88% 0.0 mm 60.00 W/m2
14:40 9.5 °C 7.6 °C 1019.2 hPa West 22.5 km/h 48.3 km/h 88% 0.0 mm 54.00 W/m2
14:45 9.5 °C 7.6 °C 1019.3 hPa West 24.1 km/h 45.1 km/h 88% 0.0 mm 56.00 W/m2
14:50 9.6 °C 7.7 °C 1019.4 hPa West 24.1 km/h 45.1 km/h 88% 0.0 mm 58.00 W/m2
14:55 9.6 °C 7.7 °C 1019.4 hPa West 25.7 km/h 48.3 km/h 88% 0.0 mm 56.00 W/m2
15:00 9.6 °C 7.7 °C 1019.4 hPa West 25.7 km/h 43.4 km/h 88% 0.0 mm 67.00 W/m2
15:05 9.6 °C 7.7 °C 1019.6 hPa West 32.2 km/h 43.4 km/h 88% 0.0 mm 62.00 W/m2
15:10 9.5 °C 7.8 °C 1019.6 hPa West 27.4 km/h 46.7 km/h 89% 0.0 mm 49.00 W/m2
15:15 9.5 °C 7.8 °C 1019.7 hPa West 27.4 km/h 45.1 km/h 89% 0.0 mm 44.00 W/m2
15:20 9.4 °C 7.7 °C 1019.8 hPa West 20.9 km/h 46.7 km/h 89% 0.0 mm 69.00 W/m2
15:25 9.3 °C 7.6 °C 1019.7 hPa West 24.1 km/h 51.5 km/h 89% 0.0 mm 67.00 W/m2
15:30 9.3 °C 7.4 °C 1019.6 hPa WSW 29.0 km/h 59.5 km/h 88% 0.0 mm 74.00 W/m2
15:35 9.4 °C 7.6 °C 1019.6 hPa WSW 19.3 km/h 46.7 km/h 88% 0.0 mm 74.00 W/m2
15:40 9.5 °C 7.6 °C 1019.7 hPa WSW 19.3 km/h 41.8 km/h 88% 0.0 mm 46.00 W/m2
15:45 9.5 °C 7.6 °C 1019.8 hPa West 25.7 km/h 45.1 km/h 88% 0.0 mm 37.00 W/m2
15:50 9.5 °C 7.6 °C 1019.8 hPa WSW 24.1 km/h 45.1 km/h 88% 0.0 mm 49.00 W/m2
15:55 9.5 °C 7.6 °C 1019.7 hPa West 16.1 km/h 38.6 km/h 88% 0.0 mm 49.00 W/m2
16:00 9.4 °C 7.7 °C 1019.7 hPa West 27.4 km/h 53.1 km/h 89% 0.2 mm 39.00 W/m2
16:05 9.4 °C 7.7 °C 1019.8 hPa West 20.9 km/h 40.2 km/h 89% 0.0 mm 40.00 W/m2
16:10 9.4 °C 7.7 °C 1019.9 hPa West 19.3 km/h 43.4 km/h 89% 0.0 mm 26.00 W/m2
16:15 9.3 °C 7.6 °C 1019.9 hPa West 22.5 km/h 49.9 km/h 89% 0.0 mm 28.00 W/m2
16:20 9.3 °C 7.6 °C 1020.0 hPa WSW 25.7 km/h 38.6 km/h 89% 0.0 mm 28.00 W/m2
16:25 9.2 °C 7.5 °C 1020.0 hPa WSW 19.3 km/h 37.0 km/h 89% 0.0 mm 23.00 W/m2
16:30 9.2 °C 7.4 °C 1020.1 hPa WSW 24.1 km/h 46.7 km/h 89% 0.0 mm 23.00 W/m2
16:35 9.1 °C 7.2 °C 1020.1 hPa West 22.5 km/h 38.6 km/h 88% 0.0 mm 16.00 W/m2
16:40 9.0 °C 7.1 °C 1020.2 hPa West 19.3 km/h 37.0 km/h 88% 0.0 mm 9.00 W/m2
16:45 8.9 °C 7.2 °C 1020.3 hPa West 20.9 km/h 40.2 km/h 89% 0.2 mm 11.00 W/m2
16:50 8.8 °C 7.3 °C 1020.3 hPa West 22.5 km/h 35.4 km/h 90% 0.0 mm 9.00 W/m2
16:55 8.7 °C 7.2 °C 1020.3 hPa West 19.3 km/h 41.8 km/h 90% 0.0 mm 0.00 W/m2
17:00 8.6 °C 7.2 °C 1020.3 hPa West 14.5 km/h 25.7 km/h 91% 0.2 mm 7.00 W/m2
17:05 8.4 °C 7.1 °C 1020.3 hPa West 16.1 km/h 33.8 km/h 91% 0.0 mm 7.00 W/m2
17:10 8.3 °C 6.9 °C 1020.2 hPa WSW 16.1 km/h 32.2 km/h 91% 0.2 mm 5.00 W/m2
17:15 8.2 °C 7.0 °C 1020.1 hPa West 25.7 km/h 38.6 km/h 92% 0.0 mm 0.00 W/m2
17:20 8.2 °C 6.9 °C 1020.1 hPa West 20.9 km/h 32.2 km/h 92% 0.0 mm 0.00 W/m2
17:25 8.1 °C 6.9 °C 1020.1 hPa West 24.1 km/h 35.4 km/h 92% 0.0 mm 0.00 W/m2
17:30 8.2 °C 6.9 °C 1020.3 hPa West 25.7 km/h 45.1 km/h 92% 0.2 mm 0.00 W/m2
17:35 8.2 °C 6.9 °C 1020.6 hPa West 22.5 km/h 43.4 km/h 92% 0.0 mm 0.00 W/m2
17:40 8.2 °C 6.9 °C 1020.7 hPa West 19.3 km/h 32.2 km/h 92% 0.0 mm 0.00 W/m2
17:45 8.1 °C 6.9 °C 1020.7 hPa West 16.1 km/h 32.2 km/h 92% 0.0 mm 0.00 W/m2
17:50 8.1 °C 6.8 °C 1020.6 hPa West 16.1 km/h 29.0 km/h 92% 0.0 mm 0.00 W/m2
17:55 8.0 °C 6.8 °C 1020.6 hPa West 12.9 km/h 24.1 km/h 92% 0.0 mm 0.00 W/m2
18:00 8.0 °C 6.8 °C 1020.6 hPa West 14.5 km/h 25.7 km/h 92% 0.0 mm 0.00 W/m2
18:05 8.0 °C 6.9 °C 1020.4 hPa West 14.5 km/h 27.4 km/h 93% 0.0 mm 0.00 W/m2
18:10 8.0 °C 6.9 °C 1020.4 hPa WSW 11.3 km/h 24.1 km/h 93% 0.0 mm 0.00 W/m2
18:15 8.1 °C 7.0 °C 1020.5 hPa WSW 20.9 km/h 32.2 km/h 93% 0.0 mm 0.00 W/m2
18:20 8.1 °C 7.1 °C 1020.5 hPa WSW 12.9 km/h 33.8 km/h 93% 0.0 mm 0.00 W/m2
18:25 8.1 °C 7.1 °C 1020.7 hPa West 20.9 km/h 35.4 km/h 93% 0.0 mm 0.00 W/m2
18:30 8.1 °C 7.1 °C 1020.6 hPa West 14.5 km/h 29.0 km/h 93% 0.0 mm 0.00 W/m2
18:35 8.1 °C 7.1 °C 1020.7 hPa West 16.1 km/h 24.1 km/h 93% 0.0 mm 0.00 W/m2
18:40 8.1 °C 7.1 °C 1020.8 hPa West 20.9 km/h 32.2 km/h 93% 0.0 mm 0.00 W/m2
18:45 8.1 °C 7.0 °C 1020.9 hPa West 14.5 km/h 24.1 km/h 93% 0.0 mm 0.00 W/m2
18:50 8.1 °C 7.0 °C 1021.1 hPa West 16.1 km/h 32.2 km/h 93% 0.0 mm 0.00 W/m2
18:55 8.1 °C 7.0 °C 1021.1 hPa West 14.5 km/h 27.4 km/h 93% 0.0 mm 0.00 W/m2
19:00 8.1 °C 7.0 °C 1020.8 hPa West 19.3 km/h 29.0 km/h 93% 0.0 mm 0.00 W/m2
19:05 8.1 °C 7.0 °C 1020.7 hPa WSW 20.9 km/h 29.0 km/h 93% 0.0 mm 0.00 W/m2
19:10 8.0 °C 6.9 °C 1020.9 hPa West 16.1 km/h 25.7 km/h 93% 0.0 mm 0.00 W/m2
19:15 7.9 °C 6.9 °C 1020.8 hPa West 14.5 km/h 32.2 km/h 93% 0.0 mm 0.00 W/m2
19:20 7.9 °C 6.7 °C 1020.8 hPa West 19.3 km/h 22.5 km/h 92% 0.0 mm 0.00 W/m2
19:25 7.9 °C 6.7 °C 1020.9 hPa West 16.1 km/h 29.0 km/h 92% 0.0 mm 0.00 W/m2
19:30 7.9 °C 6.7 °C 1020.8 hPa WSW 19.3 km/h 27.4 km/h 92% 0.0 mm 0.00 W/m2
19:35 7.9 °C 6.7 °C 1020.9 hPa WSW 12.9 km/h 27.4 km/h 92% 0.0 mm 0.00 W/m2
19:40 7.9 °C 6.7 °C 1020.8 hPa WSW 20.9 km/h 29.0 km/h 92% 0.0 mm 0.00 W/m2
19:45 7.9 °C 6.7 °C 1021.0 hPa West 16.1 km/h 35.4 km/h 92% 0.0 mm 0.00 W/m2
19:50 7.9 °C 6.7 °C 1020.9 hPa WSW 14.5 km/h 33.8 km/h 92% 0.0 mm 0.00 W/m2
19:55 7.9 °C 6.7 °C 1020.8 hPa WSW 20.9 km/h 33.8 km/h 92% 0.0 mm 0.00 W/m2
20:00 7.9 °C 6.7 °C 1020.8 hPa WSW 20.9 km/h 32.2 km/h 92% 0.0 mm 0.00 W/m2
20:05 7.9 °C 6.7 °C 1020.7 hPa WSW 14.5 km/h 27.4 km/h 92% 0.0 mm 0.00 W/m2
20:10 7.9 °C 6.7 °C 1020.7 hPa WSW 14.5 km/h 27.4 km/h 92% 0.0 mm 0.00 W/m2
20:15 7.8 °C 6.4 °C 1020.7 hPa WSW 16.1 km/h 32.2 km/h 91% 0.0 mm 0.00 W/m2
20:20 7.8 °C 6.4 °C 1020.9 hPa West 20.9 km/h 30.6 km/h 91% 0.0 mm 0.00 W/m2
20:25 7.8 °C 6.4 °C 1021.0 hPa West 14.5 km/h 24.1 km/h 91% 0.0 mm 0.00 W/m2
20:30 7.8 °C 6.4 °C 1021.0 hPa WSW 14.5 km/h 22.5 km/h 91% 0.0 mm 0.00 W/m2
20:35 7.8 °C 6.4 °C 1021.1 hPa WSW 12.9 km/h 22.5 km/h 91% 0.0 mm 0.00 W/m2
20:40 7.8 °C 6.4 °C 1021.1 hPa West 12.9 km/h 20.9 km/h 91% 0.0 mm 0.00 W/m2
20:45 7.8 °C 6.4 °C 1021.0 hPa West 12.9 km/h 20.9 km/h 91% 0.0 mm 0.00 W/m2
Caerphilly,Wales
Compliments of Weather Underground - 4 mb